createdAt,value
2022-08-26T00:01:37.962Z,9.27
2022-08-26T00:04:39.769Z,10.90
2022-08-26T00:07:41.397Z,10.00
2022-08-26T00:10:45.164Z,9.40
2022-08-26T00:13:48.106Z,9.45
2022-08-26T00:16:51.984Z,10.63
2022-08-26T00:19:57.514Z,9.38
2022-08-26T00:22:59.520Z,9.63
2022-08-26T00:26:01.831Z,11.38
2022-08-26T00:29:03.970Z,11.73
2022-08-26T00:32:07.097Z,10.93
2022-08-26T00:38:14.067Z,13.45
2022-08-26T00:41:18.027Z,11.10
2022-08-26T00:44:19.751Z,12.73
2022-08-26T00:47:33.532Z,10.75
2022-08-26T00:50:42.521Z,13.00
2022-08-26T00:53:50.454Z,8.18
2022-08-26T00:56:57.704Z,9.45
2022-08-26T01:00:06.899Z,10.63
2022-08-26T01:03:09.452Z,10.90
2022-08-26T01:06:15.031Z,12.65
2022-08-26T01:09:17.874Z,10.10
2022-08-26T01:12:22.146Z,11.18
2022-08-26T01:15:32.757Z,10.45
2022-08-26T01:18:35.876Z,10.88
2022-08-26T01:21:45.411Z,11.27
2022-08-26T01:24:48.237Z,10.07
2022-08-26T01:30:54.821Z,9.90
2022-08-26T01:34:17.017Z,9.48
2022-08-26T01:37:22.920Z,11.40
2022-08-26T01:40:32.670Z,11.40
2022-08-26T01:43:38.544Z,11.77
2022-08-26T01:46:41.098Z,11.60
2022-08-26T01:49:44.133Z,10.52
2022-08-26T01:52:54.190Z,10.65
2022-08-26T01:55:59.397Z,11.88
2022-08-26T01:59:05.741Z,9.45
2022-08-26T02:02:07.322Z,9.48
2022-08-26T02:05:11.717Z,10.07
2022-08-26T02:08:14.973Z,10.38
2022-08-26T02:11:26.726Z,10.93
2022-08-26T02:14:33.105Z,10.75
2022-08-26T02:17:45.320Z,11.32
2022-08-26T02:20:47.100Z,11.43
2022-08-26T02:23:55.991Z,13.85
2022-08-26T02:26:58.461Z,11.13
2022-08-26T02:30:11.770Z,12.40
2022-08-26T02:36:28.578Z,11.90
2022-08-26T02:39:31.143Z,12.10
2022-08-26T02:42:32.800Z,11.02
2022-08-26T02:45:35.081Z,11.68
2022-08-26T02:48:37.016Z,11.85
2022-08-26T02:51:38.649Z,11.50
2022-08-26T02:54:41.659Z,9.63
2022-08-26T02:57:43.796Z,12.48
2022-08-26T03:00:52.819Z,11.37
2022-08-26T03:03:56.444Z,12.35
2022-08-26T03:06:58.375Z,11.40
2022-08-26T03:10:00.812Z,10.55
2022-08-26T03:13:05.157Z,11.63
2022-08-26T03:16:08.306Z,9.90
2022-08-26T03:22:12.133Z,11.63
2022-08-26T03:25:16.878Z,12.88
2022-08-26T03:28:19.360Z,11.02
2022-08-26T03:31:21.454Z,10.77
2022-08-26T03:34:26.315Z,11.32
2022-08-26T03:37:28.033Z,13.35
2022-08-26T03:40:30.334Z,11.38
2022-08-26T03:43:31.995Z,11.20
2022-08-26T03:46:34.781Z,12.38
2022-08-26T03:49:36.535Z,10.90
2022-08-26T03:52:43.104Z,10.98
2022-08-26T03:55:45.895Z,11.95
2022-08-26T03:58:48.035Z,11.40
2022-08-26T04:01:52.640Z,11.10
2022-08-26T04:04:54.366Z,12.02
2022-08-26T04:07:55.965Z,11.65
2022-08-26T04:10:58.079Z,10.65
2022-08-26T04:14:01.323Z,12.63
2022-08-26T04:17:04.961Z,10.70
2022-08-26T04:20:07.995Z,10.70
2022-08-26T04:23:11.460Z,14.80
2022-08-26T04:26:13.066Z,14.50
2022-08-26T04:29:18.200Z,13.82
2022-08-26T04:32:19.822Z,15.00
2022-08-26T04:35:25.743Z,15.55
2022-08-26T04:38:28.179Z,12.30
2022-08-26T04:41:31.651Z,14.80
2022-08-26T04:44:35.962Z,14.88
2022-08-26T04:47:37.980Z,15.13
2022-08-26T04:50:39.661Z,14.68
2022-08-26T04:53:45.207Z,15.50
2022-08-26T04:56:49.367Z,11.97
2022-08-26T04:59:51.053Z,13.95
2022-08-26T05:02:53.171Z,12.60
2022-08-26T05:05:54.920Z,13.43
2022-08-26T05:08:56.600Z,16.13
2022-08-26T05:12:00.118Z,12.50
2022-08-26T05:15:01.727Z,12.90
2022-08-26T05:18:07.574Z,12.68
2022-08-26T05:21:17.489Z,13.48
2022-08-26T05:24:19.263Z,13.98
2022-08-26T05:27:21.231Z,18.97
2022-08-26T05:30:23.390Z,13.00
2022-08-26T05:33:25.083Z,12.40
2022-08-26T05:36:28.823Z,17.52
2022-08-26T05:39:32.855Z,20.42
2022-08-26T05:42:34.532Z,17.73
2022-08-26T05:45:46.827Z,22.33
2022-08-26T05:48:48.840Z,31.67
2022-08-26T05:51:50.481Z,27.30
2022-08-26T05:54:52.479Z,29.50
2022-08-26T05:57:54.067Z,24.65
2022-08-26T06:01:03.450Z,37.92
2022-08-26T06:04:07.487Z,39.13
2022-08-26T06:07:12.071Z,36.35
2022-08-26T06:10:31.486Z,34.10
2022-08-26T06:13:35.048Z,41.13
2022-08-26T06:16:40.976Z,44.25
2022-08-26T06:19:42.754Z,44.03
2022-08-26T06:23:02.695Z,46.65
2022-08-26T06:26:05.034Z,46.20
2022-08-26T06:29:07.550Z,42.40
2022-08-26T06:32:10.089Z,48.58
2022-08-26T06:35:12.431Z,50.92
2022-08-26T06:38:14.677Z,53.40
2022-08-26T06:41:18.061Z,47.60
2022-08-26T06:44:20.213Z,50.50
2022-08-26T06:47:22.629Z,47.97
2022-08-26T06:50:24.331Z,47.08
2022-08-26T06:53:27.455Z,53.80
2022-08-26T06:56:37.365Z,51.22
2022-08-26T06:59:39.483Z,56.97
2022-08-26T07:05:43.323Z,50.65
2022-08-26T07:08:49.502Z,60.88
2022-08-26T07:11:52.552Z,58.28
2022-08-26T07:14:54.233Z,51.65
2022-08-26T07:17:57.368Z,59.45
2022-08-26T07:21:02.119Z,51.90
2022-08-26T07:24:04.499Z,55.80
2022-08-26T07:27:13.779Z,51.35
2022-08-26T07:30:15.665Z,52.65
2022-08-26T07:33:18.111Z,54.78
2022-08-26T07:36:21.369Z,53.47
2022-08-26T07:39:24.312Z,51.78
2022-08-26T07:42:26.353Z,55.17
2022-08-26T07:45:28.981Z,52.13
2022-08-26T07:48:31.258Z,59.00
2022-08-26T07:51:35.774Z,61.17
2022-08-26T07:57:40.713Z,68.47
2022-08-26T08:00:43.763Z,68.50
2022-08-26T08:03:46.544Z,75.72
2022-08-26T08:06:52.548Z,71.20
2022-08-26T08:09:54.734Z,64.93
2022-08-26T08:12:58.844Z,71.20
2022-08-26T08:16:02.459Z,68.47
2022-08-26T08:19:06.707Z,61.42
2022-08-26T08:22:17.787Z,58.97
2022-08-26T08:25:22.570Z,69.85
2022-08-26T08:28:25.324Z,57.67
2022-08-26T08:31:56.853Z,59.50
2022-08-26T08:34:51.900Z,63.88
2022-08-26T08:37:54.836Z,57.92
2022-08-26T08:40:56.846Z,57.65
2022-08-26T08:44:01.682Z,57.95
2022-08-26T08:47:12.302Z,57.33
2022-08-26T08:50:30.164Z,54.95
2022-08-26T08:53:36.513Z,56.67
2022-08-26T08:56:45.481Z,56.55
2022-08-26T08:59:58.326Z,59.35
2022-08-26T09:03:08.532Z,58.58
2022-08-26T09:06:17.272Z,53.30
2022-08-26T09:09:29.296Z,53.35
2022-08-26T09:12:33.937Z,47.20
2022-08-26T09:15:56.762Z,46.58
2022-08-26T09:19:24.851Z,46.67
2022-08-26T09:22:33.019Z,51.75
2022-08-26T09:25:46.182Z,42.42
2022-08-26T09:29:02.191Z,44.63
2022-08-26T09:32:16.114Z,44.60
2022-08-26T09:35:31.604Z,39.67
2022-08-26T09:38:34.506Z,34.13
2022-08-26T09:41:37.069Z,33.88
2022-08-26T09:45:00.219Z,37.42
2022-08-26T09:48:03.142Z,32.47
2022-08-26T09:51:23.183Z,35.55
2022-08-26T09:54:30.139Z,37.22
2022-08-26T09:57:36.360Z,32.03
2022-08-26T10:00:42.066Z,30.20
2022-08-26T10:03:44.967Z,27.25
2022-08-26T10:07:09.509Z,34.10
2022-08-26T10:10:20.937Z,30.67
2022-08-26T10:13:28.073Z,33.05
2022-08-26T10:16:52.778Z,34.35
2022-08-26T10:19:59.862Z,30.40
2022-08-26T10:23:14.870Z,29.13
2022-08-26T10:26:25.378Z,25.75
2022-08-26T10:29:37.899Z,29.77
2022-08-26T10:33:09.412Z,28.08
2022-08-26T10:37:15.842Z,23.65
2022-08-26T10:40:23.499Z,23.10
2022-08-26T10:43:40.847Z,26.70
2022-08-26T10:46:47.782Z,22.10
2022-08-26T10:49:55.591Z,30.17
2022-08-26T10:53:04.326Z,34.90
2022-08-26T10:56:29.679Z,34.55
2022-08-26T10:59:47.909Z,35.33
2022-08-26T11:02:54.124Z,32.50
2022-08-26T11:06:28.787Z,29.30
2022-08-26T11:09:46.159Z,32.10
2022-08-26T11:12:52.084Z,29.52
2022-08-26T11:15:55.041Z,30.77
2022-08-26T11:18:57.097Z,26.25
2022-08-26T11:25:13.059Z,26.75
2022-08-26T11:28:36.283Z,28.05
2022-08-26T11:31:37.925Z,23.88
2022-08-26T11:35:00.387Z,26.60
2022-08-26T11:38:04.372Z,24.48
2022-08-26T11:41:10.229Z,26.80
2022-08-26T11:44:18.792Z,30.83
2022-08-26T11:47:29.801Z,28.00
2022-08-26T11:50:31.719Z,24.65
2022-08-26T11:53:37.770Z,24.75
2022-08-26T11:56:42.165Z,24.15
2022-08-26T11:59:43.871Z,21.90
2022-08-26T12:02:49.234Z,25.77
2022-08-26T12:05:53.156Z,29.33
2022-08-26T12:08:58.683Z,31.67
2022-08-26T12:12:12.364Z,26.30
2022-08-26T12:15:22.176Z,36.78
2022-08-26T12:18:31.566Z,34.45
2022-08-26T12:21:34.866Z,35.72
2022-08-26T12:24:47.200Z,32.80
2022-08-26T12:27:53.109Z,38.20
2022-08-26T12:31:01.022Z,37.13
2022-08-26T12:34:05.921Z,33.42
2022-08-26T12:37:11.820Z,34.17
2022-08-26T12:40:39.700Z,32.20
2022-08-26T12:43:43.064Z,33.55
2022-08-26T12:46:49.198Z,31.13
2022-08-26T12:50:12.076Z,31.83
2022-08-26T12:53:17.568Z,31.50
2022-08-26T12:56:31.076Z,35.83
2022-08-26T12:59:32.744Z,31.40
2022-08-26T13:02:36.117Z,30.92
2022-08-26T13:05:38.003Z,30.60
2022-08-26T13:08:44.417Z,32.35
2022-08-26T13:11:46.130Z,33.38
2022-08-26T13:14:47.817Z,34.85
2022-08-26T13:17:49.674Z,33.28
2022-08-26T13:20:51.693Z,33.40
2022-08-26T13:23:54.050Z,32.08
2022-08-26T13:29:59.140Z,33.95
2022-08-26T13:33:01.095Z,30.65
2022-08-26T13:36:04.964Z,30.88
2022-08-26T13:39:06.821Z,29.63
2022-08-26T13:42:09.093Z,31.75
2022-08-26T13:45:11.605Z,30.13
2022-08-26T13:48:13.451Z,31.88
2022-08-26T13:51:16.517Z,30.27
2022-08-26T13:54:18.220Z,29.42
2022-08-26T13:57:20.090Z,30.88
2022-08-26T14:00:22.129Z,27.88
2022-08-26T14:03:24.799Z,26.50
2022-08-26T14:06:26.808Z,25.95
2022-08-26T14:09:28.422Z,29.08
2022-08-26T14:12:30.092Z,26.40
2022-08-26T14:15:35.523Z,23.95
2022-08-26T14:18:42.158Z,23.40
2022-08-26T14:21:45.392Z,23.23
2022-08-26T14:24:47.729Z,23.48
2022-08-26T14:27:50.267Z,19.67
2022-08-26T14:30:55.232Z,18.30
2022-08-26T14:34:00.027Z,19.00
2022-08-26T14:37:07.801Z,14.13
2022-08-26T14:40:11.150Z,10.25
2022-08-26T14:43:15.199Z,11.10
2022-08-26T14:46:18.466Z,12.32
2022-08-26T14:49:21.787Z,15.88
2022-08-26T14:52:23.777Z,11.77
2022-08-26T14:58:32.934Z,11.15
2022-08-26T15:01:37.183Z,13.10
2022-08-26T15:04:40.552Z,19.23
2022-08-26T15:07:47.477Z,19.60
2022-08-26T15:10:49.681Z,20.75
2022-08-26T15:16:55.916Z,15.05
2022-08-26T15:19:57.939Z,13.80
2022-08-26T15:23:03.314Z,12.10
2022-08-26T15:26:10.813Z,12.10
2022-08-26T15:29:12.861Z,13.27
2022-08-26T15:32:14.516Z,14.98
2022-08-26T15:35:16.515Z,16.73
2022-08-26T15:38:18.152Z,19.05
2022-08-26T15:41:19.826Z,19.85
2022-08-26T15:44:22.458Z,23.92
2022-08-26T15:47:24.350Z,26.73
2022-08-26T15:50:26.130Z,24.80
2022-08-26T15:53:30.233Z,26.63
2022-08-26T15:56:35.474Z,26.10
2022-08-26T15:59:37.374Z,21.65
2022-08-26T16:02:39.094Z,21.77
2022-08-26T16:05:43.558Z,22.27
2022-08-26T16:08:45.324Z,20.27
2022-08-26T16:11:46.987Z,22.88
2022-08-26T16:14:51.454Z,25.38
2022-08-26T16:17:54.434Z,20.30
2022-08-26T16:21:13.461Z,21.58
2022-08-26T16:24:15.979Z,20.92
2022-08-26T16:27:17.954Z,23.45
2022-08-26T16:30:21.287Z,19.85
2022-08-26T16:33:29.664Z,23.55
2022-08-26T16:36:31.770Z,24.40
2022-08-26T16:39:33.403Z,25.25
2022-08-26T16:42:41.861Z,24.35
2022-08-26T16:45:43.623Z,27.58
2022-08-26T16:48:45.885Z,25.23
2022-08-26T16:51:47.545Z,25.60
2022-08-26T16:54:49.352Z,21.33
2022-08-26T16:57:52.129Z,23.00
2022-08-26T17:00:53.751Z,24.30
2022-08-26T17:03:55.401Z,20.73
2022-08-26T17:06:58.167Z,20.70
2022-08-26T17:09:59.842Z,22.08
2022-08-26T17:13:01.508Z,23.33
2022-08-26T17:16:07.463Z,21.30
2022-08-26T17:19:11.805Z,18.60
2022-08-26T17:22:14.399Z,16.58
2022-08-26T17:28:25.280Z,18.33
2022-08-26T17:31:27.576Z,17.58
2022-08-26T17:34:31.818Z,16.42
2022-08-26T17:37:34.989Z,17.48
2022-08-26T17:40:39.770Z,22.67
2022-08-26T17:43:45.392Z,16.65
2022-08-26T17:46:47.685Z,20.02
2022-08-26T17:49:51.048Z,18.73
2022-08-26T17:52:57.592Z,19.55
2022-08-26T17:56:02.909Z,19.38
2022-08-26T17:59:09.988Z,21.75
2022-08-26T18:02:13.736Z,19.35
2022-08-26T18:05:17.448Z,21.95
2022-08-26T18:08:20.180Z,20.40
2022-08-26T18:11:23.576Z,19.02
2022-08-26T18:14:25.369Z,20.88
2022-08-26T18:17:27.125Z,19.27
2022-08-26T18:20:28.738Z,19.10
2022-08-26T18:23:31.433Z,16.20
2022-08-26T18:26:36.476Z,15.88
2022-08-26T18:29:38.217Z,20.42
2022-08-26T18:32:49.374Z,19.27
2022-08-26T18:35:51.161Z,17.00
2022-08-26T18:38:54.116Z,19.00
2022-08-26T18:41:57.204Z,18.23
2022-08-26T18:44:58.853Z,18.33
2022-08-26T18:48:01.987Z,14.65
2022-08-26T18:51:04.445Z,18.30
2022-08-26T18:54:07.601Z,15.82
2022-08-26T18:57:09.349Z,19.80
2022-08-26T19:00:11.830Z,16.30
2022-08-26T19:03:18.712Z,17.20
2022-08-26T19:06:23.075Z,16.50
2022-08-26T19:09:26.471Z,18.75
2022-08-26T19:12:29.584Z,19.42
2022-08-26T19:15:40.229Z,16.67
2022-08-26T19:18:41.937Z,17.52
2022-08-26T19:21:43.582Z,23.38
2022-08-26T19:24:45.263Z,19.02
2022-08-26T19:27:47.070Z,15.90
2022-08-26T19:30:53.168Z,15.82
2022-08-26T19:33:56.891Z,16.38
2022-08-26T19:36:58.637Z,15.10
2022-08-26T19:40:00.413Z,18.50
2022-08-26T19:43:02.544Z,16.23
2022-08-26T19:46:17.370Z,14.35
2022-08-26T19:49:19.116Z,15.43
2022-08-26T19:52:22.578Z,16.50
2022-08-26T19:55:31.882Z,15.40
2022-08-26T19:58:33.568Z,18.80
2022-08-26T20:01:35.226Z,15.43
2022-08-26T20:04:37.076Z,17.35
2022-08-26T20:07:39.139Z,18.73
2022-08-26T20:10:40.927Z,17.00
2022-08-26T20:13:47.028Z,16.83
2022-08-26T20:16:49.589Z,18.85
2022-08-26T20:20:14.743Z,13.27
2022-08-26T20:23:31.659Z,16.15
2022-08-26T20:26:35.311Z,16.58
2022-08-26T20:29:38.150Z,16.00
2022-08-26T20:35:42.113Z,16.90
2022-08-26T20:38:44.935Z,13.43
2022-08-26T20:44:54.273Z,16.40
2022-08-26T20:47:56.775Z,16.63
2022-08-26T20:50:59.832Z,15.07
2022-08-26T20:54:01.534Z,18.95
2022-08-26T20:57:03.683Z,15.32
2022-08-26T21:00:06.958Z,16.85
2022-08-26T21:03:08.954Z,14.40
2022-08-26T21:06:11.069Z,12.50
2022-08-26T21:09:14.046Z,15.10
2022-08-26T21:12:17.081Z,14.43
2022-08-26T21:15:18.766Z,18.17
2022-08-26T21:18:20.368Z,15.43
2022-08-26T21:21:25.162Z,12.68
2022-08-26T21:24:27.055Z,17.65
2022-08-26T21:27:28.657Z,14.90
2022-08-26T21:30:30.383Z,15.57
2022-08-26T21:33:31.976Z,19.50
2022-08-26T21:36:33.735Z,17.33
2022-08-26T21:39:35.340Z,17.83
2022-08-26T21:42:37.284Z,16.25
2022-08-26T21:45:40.457Z,18.13
2022-08-26T21:48:48.734Z,15.18
2022-08-26T21:51:52.146Z,16.02
2022-08-26T21:55:01.587Z,16.27
2022-08-26T21:58:03.313Z,14.07
2022-08-26T22:01:09.514Z,11.68
2022-08-26T22:04:11.224Z,19.35
2022-08-26T22:07:13.071Z,14.10
2022-08-26T22:10:14.679Z,14.67
2022-08-26T22:13:16.325Z,13.20
2022-08-26T22:16:18.447Z,13.73
2022-08-26T22:19:20.967Z,15.20
2022-08-26T22:22:26.172Z,16.08
2022-08-26T22:25:27.814Z,18.85
2022-08-26T22:28:29.553Z,16.42
2022-08-26T22:31:37.893Z,19.17
2022-08-26T22:34:41.062Z,16.90
2022-08-26T22:37:43.170Z,13.60
2022-08-26T22:40:47.634Z,14.30
2022-08-26T22:43:49.639Z,14.55
2022-08-26T22:46:54.327Z,16.67
2022-08-26T22:49:56.676Z,13.73
2022-08-26T22:52:58.260Z,13.07
2022-08-26T22:56:00.197Z,15.63
2022-08-26T22:59:02.917Z,18.10
2022-08-26T23:02:05.194Z,16.15
2022-08-26T23:05:10.239Z,17.05
2022-08-26T23:08:12.855Z,16.83
2022-08-26T23:11:14.994Z,14.73
2022-08-26T23:14:18.170Z,14.88
2022-08-26T23:17:19.773Z,13.82
2022-08-26T23:20:21.633Z,14.52
2022-08-26T23:23:25.669Z,13.20
2022-08-26T23:26:27.306Z,17.13
2022-08-26T23:29:29.090Z,14.05
2022-08-26T23:32:30.733Z,13.75
2022-08-26T23:35:32.550Z,16.45
2022-08-26T23:38:34.678Z,18.58
2022-08-26T23:41:36.921Z,13.77
2022-08-26T23:44:38.996Z,16.90
2022-08-26T23:47:41.359Z,16.42
2022-08-26T23:51:01.649Z,15.63
2022-08-26T23:54:03.470Z,15.93
2022-08-26T23:57:06.484Z,18.05
